sensor_id;sensor_type;location;lat;lon;timestamp;temperature;humidity
73438;DHT22;66471;56.532;21.020;2023-09-19T06:23:49;18.70;96.80
73438;DHT22;66471;56.532;21.020;2023-09-19T06:26:16;18.70;96.50
73438;DHT22;66471;56.532;21.020;2023-09-19T06:28:44;18.80;96.20
73438;DHT22;66471;56.532;21.020;2023-09-19T06:31:12;18.80;96.20
73438;DHT22;66471;56.532;21.020;2023-09-19T06:33:39;19.00;95.70
73438;DHT22;66471;56.532;21.020;2023-09-19T06:36:08;19.00;95.40
73438;DHT22;66471;56.532;21.020;2023-09-19T06:38:35;19.00;95.50
73438;DHT22;66471;56.532;21.020;2023-09-19T06:41:03;19.00;95.80
73438;DHT22;66471;56.532;21.020;2023-09-19T06:43:35;19.10;95.70
73438;DHT22;66471;56.532;21.020;2023-09-19T06:46:02;19.10;95.50
73438;DHT22;66471;56.532;21.020;2023-09-19T06:48:30;19.00;95.90
73438;DHT22;66471;56.532;21.020;2023-09-19T06:51:00;19.10;95.50
73438;DHT22;66471;56.532;21.020;2023-09-19T06:53:32;19.10;95.60
73438;DHT22;66471;56.532;21.020;2023-09-19T06:56:02;19.40;94.60
73438;DHT22;66471;56.532;21.020;2023-09-19T06:58:29;19.40;95.00
73438;DHT22;66471;56.532;21.020;2023-09-19T07:00:58;19.60;94.30
73438;DHT22;66471;56.532;21.020;2023-09-19T07:03:25;19.80;93.80
73438;DHT22;66471;56.532;21.020;2023-09-19T07:05:56;20.00;93.40
73438;DHT22;66471;56.532;21.020;2023-09-19T07:08:25;20.10;92.90
73438;DHT22;66471;56.532;21.020;2023-09-19T07:10:52;20.20;92.40
73438;DHT22;66471;56.532;21.020;2023-09-19T07:13:21;20.20;92.90
73438;DHT22;66471;56.532;21.020;2023-09-19T07:15:48;20.20;92.40
73438;DHT22;66471;56.532;21.020;2023-09-19T07:18:17;20.10;93.10
73438;DHT22;66471;56.532;21.020;2023-09-19T07:20:45;19.90;93.00
73438;DHT22;66471;56.532;21.020;2023-09-19T07:23:20;20.00;93.90
73438;DHT22;66471;56.532;21.020;2023-09-19T07:25:49;20.00;93.60
73438;DHT22;66471;56.532;21.020;2023-09-19T07:28:17;20.10;93.20
73438;DHT22;66471;56.532;21.020;2023-09-19T07:30:44;20.10;93.20
73438;DHT22;66471;56.532;21.020;2023-09-19T07:33:12;20.30;92.80
73438;DHT22;66471;56.532;21.020;2023-09-19T07:35:39;20.40;92.20
73438;DHT22;66471;56.532;21.020;2023-09-19T07:38:07;20.30;92.90
73438;DHT22;66471;56.532;21.020;2023-09-19T07:40:35;20.20;93.30
73438;DHT22;66471;56.532;21.020;2023-09-19T07:43:03;20.00;94.30
73438;DHT22;66471;56.532;21.020;2023-09-19T07:45:32;20.00;94.70
73438;DHT22;66471;56.532;21.020;2023-09-19T07:47:59;19.90;95.20
73438;DHT22;66471;56.532;21.020;2023-09-19T07:50:33;19.70;95.70
73438;DHT22;66471;56.532;21.020;2023-09-19T07:53:00;19.70;95.80
73438;DHT22;66471;56.532;21.020;2023-09-19T07:55:28;19.60;97.40
73438;DHT22;66471;56.532;21.020;2023-09-19T07:57:56;19.50;98.10
73438;DHT22;66471;56.532;21.020;2023-09-19T08:00:24;19.40;99.70
73438;DHT22;66471;56.532;21.020;2023-09-19T08:02:51;19.10;99.90
73438;DHT22;66471;56.532;21.020;2023-09-19T08:05:29;18.70;99.90
73438;DHT22;66471;56.532;21.020;2023-09-19T08:07:57;18.40;99.90
73438;DHT22;66471;56.532;21.020;2023-09-19T08:10:24;18.40;99.90
73438;DHT22;66471;56.532;21.020;2023-09-19T08:12:55;18.20;99.90
73438;DHT22;66471;56.532;21.020;2023-09-19T08:15:25;18.20;99.90
